Time;durP1;ratioP1;P1;durP2;ratioP2;P2;SDS_P1;SDS_P2;PMS_P1;PMS_P2;Temp;Humidity;BMP_temperature;BMP_pressure;BME280_temperature;BME280_humidity;BME280_pressure;Samples;Min_cycle;Max_cycle;Signal;HPM_P1;HPM_P2
2022/06/23 00:01:27;;;;;;;12.52;4.65;;;;;;;15.73;71.26;101005.22;5071768;28;20031;-76
2022/06/23 00:03:55;;;;;;;14.15;4.65;;;;;;;15.72;72.10;101003.50;5071726;28;20035;-77
2022/06/23 00:06:40;;;;;;;15.30;5.40;;;;;;;15.74;69.66;101001.53;5050409;28;20029;-77
2022/06/23 00:09:28;;;;;;;15.70;5.00;;;;;;;15.80;71.87;100994.69;5065125;28;20496;-77
2022/06/23 00:11:54;;;;;;;16.60;5.97;;;;;;;15.80;71.71;100994.69;5069324;28;20016;-77
2022/06/23 00:14:20;;;;;;;14.73;5.30;;;;;;;15.83;73.16;100995.28;5064048;28;20352;-77
2022/06/23 00:16:45;;;;;;;18.60;6.45;;;;;;;15.81;72.94;100991.88;5068955;28;20141;-76
2022/06/23 00:19:14;;;;;;;19.90;6.03;;;;;;;15.82;72.71;100993.56;5070231;28;20480;-76
2022/06/23 00:21:44;;;;;;;16.17;5.25;;;;;;;15.84;72.24;100998.81;5083946;28;20031;-76
2022/06/23 00:24:19;;;;;;;15.13;5.68;;;;;;;15.84;72.78;101001.53;5068734;28;20078;-76
2022/06/23 00:26:45;;;;;;;17.15;6.25;;;;;;;15.84;72.43;100998.81;5067209;28;20037;-76
2022/06/23 00:29:16;;;;;;;18.38;6.15;;;;;;;15.83;72.59;100995.28;5069047;28;20039;-76
2022/06/23 00:32:04;;;;;;;19.23;6.45;;;;;;;15.84;72.39;100999.72;5063922;28;20024;-76
2022/06/23 00:34:38;;;;;;;17.30;6.72;;;;;;;15.81;72.72;101007.25;5070339;28;20023;-76
2022/06/23 00:37:09;;;;;;;20.35;6.90;;;;;;;15.80;71.57;101009.13;5068282;28;20028;-76
2022/06/23 00:39:37;;;;;;;16.40;6.38;;;;;;;15.78;73.27;101002.97;5068548;28;20031;-76
2022/06/23 00:42:05;;;;;;;16.48;6.07;;;;;;;15.76;73.71;101001.38;5069455;28;20441;-76
2022/06/23 00:44:47;;;;;;;21.20;7.35;;;;;;;15.76;73.03;101002.22;5068904;28;20091;-76
2022/06/23 00:47:18;;;;;;;19.48;6.38;;;;;;;15.73;74.01;101000.66;5066980;28;20028;-76
2022/06/23 00:50:08;;;;;;;20.17;7.18;;;;;;;15.71;74.22;100997.25;5074334;28;20028;-76
2022/06/23 00:52:42;;;;;;;21.95;7.22;;;;;;;15.68;73.80;100996.66;5089834;28;20028;-76
2022/06/23 00:55:36;;;;;;;17.33;6.85;;;;;;;15.70;74.79;100983.84;5086817;28;20039;-76
2022/06/23 00:58:27;;;;;;;18.52;7.20;;;;;;;15.67;74.61;100979.56;5069583;28;20034;-76
2022/06/23 01:01:01;;;;;;;18.70;8.45;;;;;;;15.61;75.40;100980.13;5039424;28;20064;-76
2022/06/23 01:03:31;;;;;;;19.45;7.35;;;;;;;15.55;75.67;100986.13;5059203;28;20469;-76
2022/06/23 01:06:10;;;;;;;19.75;7.70;;;;;;;15.55;75.13;100986.13;5051110;28;20418;-76
2022/06/23 01:08:47;;;;;;;17.55;7.38;;;;;;;15.49;75.71;100981.25;5078420;28;20040;-76
2022/06/23 01:11:32;;;;;;;19.88;8.13;;;;;;;15.49;75.55;100981.25;5070682;28;20345;-76
2022/06/23 01:14:30;;;;;;;18.50;7.75;;;;;;;15.49;75.49;100976.72;5068131;28;20159;-76
2022/06/23 01:17:22;;;;;;;18.15;7.38;;;;;;;15.46;75.35;100976.13;5061661;28;20095;-76
2022/06/23 01:20:06;;;;;;;19.92;8.25;;;;;;;15.46;76.94;100981.53;5062654;28;20024;-76
2022/06/23 01:22:49;;;;;;;21.70;8.77;;;;;;;15.45;76.13;100977.13;5070156;28;20436;-76
2022/06/23 01:25:30;;;;;;;20.05;8.63;;;;;;;15.43;76.93;100984.53;5068872;28;20119;-76
2022/06/23 01:28:15;;;;;;;23.40;9.32;;;;;;;15.42;77.34;100978.28;5068618;28;20068;-76
2022/06/23 01:31:13;;;;;;;18.85;8.05;;;;;;;15.44;77.84;100975.41;5059973;28;20024;-76
2022/06/23 01:33:44;;;;;;;23.00;8.63;;;;;;;15.42;77.91;100970.13;5062964;28;20052;-76
2022/06/23 01:36:32;;;;;;;21.17;8.95;;;;;;;15.43;77.59;100965.56;5065411;28;20566;-76
2022/06/23 01:39:06;;;;;;;20.33;9.30;;;;;;;15.42;78.50;100985.50;5067700;28;20475;-76
2022/06/23 01:42:24;;;;;;;19.80;9.20;;;;;;;15.45;77.48;100980.69;5065560;28;20416;-76
2022/06/23 01:45:09;;;;;;;20.00;9.07;;;;;;;15.42;78.07;100980.09;5054848;28;20403;-76
2022/06/23 01:47:42;;;;;;;20.45;9.23;;;;;;;15.41;78.74;100983.81;5069377;28;20085;-76
2022/06/23 01:50:13;;;;;;;21.33;9.05;;;;;;;15.38;79.09;100980.38;5075698;28;20023;-76
2022/06/23 01:52:41;;;;;;;21.27;9.82;;;;;;;15.37;79.83;100983.22;5071405;28;20055;-76
2022/06/23 01:55:17;;;;;;;20.92;8.90;;;;;;;15.37;78.97;100984.09;5064448;28;20089;-76
2022/06/23 01:57:48;;;;;;;20.38;10.07;;;;;;;15.35;79.95;100980.66;5066420;28;20040;-76
2022/06/23 02:00:19;;;;;;;22.30;9.13;;;;;;;15.33;80.04;100969.13;5067271;28;20020;-76
2022/06/23 02:03:21;;;;;;;20.30;9.00;;;;;;;15.33;79.29;100969.13;5072492;28;20395;-76
2022/06/23 02:06:02;;;;;;;23.15;9.90;;;;;;;15.30;79.90;100972.13;5072807;28;20460;-76
2022/06/23 02:08:49;;;;;;;23.65;9.57;;;;;;;15.29;80.10;100970.41;5067561;28;20041;-76
2022/06/23 02:11:24;;;;;;;24.40;10.35;;;;;;;15.30;80.58;100965.84;5072245;28;20032;-76
2022/06/23 02:13:55;;;;;;;22.20;9.43;;;;;;;15.27;80.91;100963.41;5063906;28;20357;-76
2022/06/23 02:16:44;;;;;;;21.70;9.23;;;;;;;15.29;80.67;100965.00;5082644;28;20127;-76
2022/06/23 02:19:19;;;;;;;22.92;9.73;;;;;;;15.30;81.26;100968.53;5070047;28;20021;-76
2022/06/23 02:22:03;;;;;;;23.48;10.35;;;;;;;15.31;81.15;100965.69;5069849;28;20050;-76
2022/06/23 02:24:34;;;;;;;20.85;9.52;;;;;;;15.27;81.60;100952.56;5072662;28;20097;-76
2022/06/23 02:27:09;;;;;;;22.48;10.02;;;;;;;15.26;81.46;100954.44;5070513;28;20452;-76
2022/06/23 02:29:52;;;;;;;20.10;9.40;;;;;;;15.27;80.70;100955.28;5068574;28;20031;-76
2022/06/23 02:32:23;;;;;;;21.55;9.82;;;;;;;15.28;81.05;100960.56;5070967;28;20071;-76
2022/06/23 02:35:22;;;;;;;24.05;9.98;;;;;;;15.30;80.92;100966.72;5083148;28;20028;-76
2022/06/23 02:38:04;;;;;;;23.55;10.38;;;;;;;15.31;81.79;100957.56;5071979;28;20032;-76
2022/06/23 02:40:43;;;;;;;20.73;10.13;;;;;;;15.36;81.71;100955.31;5070553;28;20036;-76
2022/06/23 02:43:10;;;;;;;23.45;10.48;;;;;;;15.36;82.17;100963.44;5071644;28;20035;-76
2022/06/23 02:45:58;;;;;;;25.50;10.30;;;;;;;15.38;82.19;100964.13;5073247;28;20069;-76
2022/06/23 02:48:51;;;;;;;25.23;10.10;;;;;;;15.36;82.04;100960.72;5070365;28;20044;-76
2022/06/23 02:51:49;;;;;;;22.70;10.43;;;;;;;15.40;81.25;100965.84;5068054;28;20032;-76
2022/06/23 02:54:45;;;;;;;25.23;10.98;;;;;;;15.41;81.44;100964.88;5066335;28;20035;-76
2022/06/23 02:57:28;;;;;;;23.00;11.10;;;;;;;15.34;82.38;100954.59;5073017;28;20024;-76
2022/06/23 02:59:54;;;;;;;22.33;11.02;;;;;;;15.33;82.10;100944.75;5069194;28;20073;-76
2022/06/23 03:02:45;;;;;;;22.67;11.13;;;;;;;15.35;81.45;100941.91;5070379;28;20040;-76
2022/06/23 03:05:19;;;;;;;21.27;10.25;;;;;;;15.32;82.27;100945.75;5064803;28;20392;-76
2022/06/23 03:08:06;;;;;;;20.30;10.45;;;;;;;15.32;80.98;100940.34;5070365;28;20488;-76
2022/06/23 03:10:42;;;;;;;22.55;10.20;;;;;;;15.29;81.77;100937.06;5058741;28;20739;-76
2022/06/23 03:13:26;;;;;;;23.75;11.30;;;;;;;15.26;81.80;100935.50;5071710;28;20404;-76
2022/06/23 03:16:19;;;;;;;22.58;10.48;;;;;;;15.27;81.28;100929.09;5064878;28;20036;-76
2022/06/23 03:19:02;;;;;;;20.60;10.00;;;;;;;15.23;81.33;100927.66;5069630;28;20020;-76
2022/06/23 03:21:31;;;;;;;23.80;11.48;;;;;;;15.18;81.71;100925.38;5072619;28;20036;-76
2022/06/23 03:24:22;;;;;;;23.02;10.05;;;;;;;15.16;81.41;100923.78;5070725;28;20052;-76
2022/06/23 03:27:00;;;;;;;26.50;10.68;;;;;;;15.16;81.32;100932.75;5071192;28;20051;-76
2022/06/23 03:29:38;;;;;;;22.40;9.93;;;;;;;15.14;81.38;100926.66;5070863;28;20380;-76
2022/06/23 03:32:31;;;;;;;21.63;10.30;;;;;;;15.11;81.12;100929.63;5069037;28;20036;-76
2022/06/23 03:35:12;;;;;;;23.63;11.65;;;;;;;15.12;80.61;100941.31;5068294;28;20024;-76
2022/06/23 03:37:58;;;;;;;21.42;10.95;;;;;;;15.18;80.60;100940.75;5071301;28;20377;-76
2022/06/23 03:43:37;;;;;;;24.83;11.60;;;;;;;15.22;80.43;100953.00;5071061;28;20302;-76
2022/06/23 03:46:23;;;;;;;23.77;10.70;;;;;;;15.23;80.45;100949.31;5070046;28;20075;-76
2022/06/23 03:48:54;;;;;;;23.98;11.48;;;;;;;15.23;80.87;100949.31;5059744;28;20063;-76
2022/06/23 03:51:35;;;;;;;26.90;12.55;;;;;;;15.22;80.23;100944.88;5069184;28;20032;-76
2022/06/23 03:54:02;;;;;;;23.58;11.15;;;;;;;15.17;81.01;100947.16;5057802;28;20104;-76
2022/06/23 03:56:33;;;;;;;21.42;9.70;;;;;;;15.14;81.16;100948.31;5070101;28;20032;-76
2022/06/23 03:59:19;;;;;;;23.70;10.30;;;;;;;15.09;80.90;100942.44;5070129;28;20028;-76
2022/06/23 04:01:52;;;;;;;21.10;9.35;;;;;;;15.03;80.55;100943.84;5054746;28;20054;-76
2022/06/23 04:04:42;;;;;;;21.73;10.00;;;;;;;15.05;80.87;100932.03;5069340;28;20051;-77
2022/06/23 04:07:42;;;;;;;23.35;10.60;;;;;;;15.08;80.69;100945.28;5057551;28;20452;-77
2022/06/23 04:10:44;;;;;;;23.40;9.70;;;;;;;15.07;80.61;100939.03;5069602;28;20040;-76
2022/06/23 04:13:31;;;;;;;25.52;9.85;;;;;;;15.02;80.98;100942.16;5028051;28;20191;-76
2022/06/23 04:16:04;;;;;;;31.40;10.73;;;;;;;15.02;81.94;100935.88;5027739;28;20047;-76
2022/06/23 04:18:31;;;;;;;23.67;9.63;;;;;;;14.99;82.26;100930.75;5001667;28;20017;-76
2022/06/23 04:21:28;;;;;;;22.40;9.85;;;;;;;15.02;81.25;100925.03;5012440;28;20261;-76
2022/06/23 04:23:58;;;;;;;20.75;9.70;;;;;;;15.00;81.92;100922.47;5013045;28;20037;-76
2022/06/23 04:26:32;;;;;;;22.27;10.10;;;;;;;15.00;80.98;100918.94;5029199;28;20061;-76
2022/06/23 04:29:09;;;;;;;24.38;10.10;;;;;;;15.03;80.40;100924.91;5028765;28;20128;-76
2022/06/23 04:31:42;;;;;;;21.65;10.45;;;;;;;15.08;80.59;100929.03;5025592;28;20393;-76
2022/06/23 04:34:19;;;;;;;21.40;9.88;;;;;;;15.14;79.74;100942.00;5025248;28;20136;-76
2022/06/23 04:36:45;;;;;;;24.92;9.85;;;;;;;15.19;76.18;100948.72;5016956;28;20028;-76
2022/06/23 04:39:35;;;;;;;23.10;10.23;;;;;;;15.28;78.33;100946.19;5011287;28;20029;-76
2022/06/23 04:42:15;;;;;;;21.73;10.20;;;;;;;15.31;77.48;100935.91;5012161;28;20029;-76
2022/06/23 04:44:47;;;;;;;20.75;9.07;;;;;;;15.36;78.32;100947.19;5026483;28;20112;-76
2022/06/23 04:47:20;;;;;;;21.33;9.15;;;;;;;15.40;77.53;100944.19;5045525;28;20106;-76
2022/06/23 04:49:51;;;;;;;22.88;9.50;;;;;;;15.41;77.52;100930.50;5071634;28;20390;-76
2022/06/23 04:52:29;;;;;;;20.65;10.18;;;;;;;15.44;78.83;100941.06;5075283;28;20032;-76
2022/06/23 04:55:17;;;;;;;23.77;9.25;;;;;;;15.47;78.37;100937.22;5070473;28;20066;-76
2022/06/23 04:57:49;;;;;;;20.27;9.15;;;;;;;15.45;79.11;100926.53;5068974;28;20464;-76
2022/06/23 05:00:46;;;;;;;19.73;9.00;;;;;;;15.47;78.68;100932.63;5066185;28;20027;-76
2022/06/23 05:03:36;;;;;;;20.67;9.18;;;;;;;15.50;77.85;100935.06;5058072;28;20071;-77
2022/06/23 05:06:13;;;;;;;22.65;9.20;;;;;;;15.51;78.58;100942.19;5059089;28;20032;-77
2022/06/23 05:08:42;;;;;;;21.42;9.13;;;;;;;15.52;77.23;100934.91;5067799;28;20041;-77
2022/06/23 05:11:26;;;;;;;18.70;9.18;;;;;;;15.55;77.94;100935.50;5068445;28;20424;-76
2022/06/23 05:14:13;;;;;;;19.77;8.05;;;;;;;15.58;77.63;100934.38;5068862;28;20400;-76
2022/06/23 05:16:43;;;;;;;22.20;8.57;;;;;;;15.61;78.60;100946.75;5068935;28;20024;-76
2022/06/23 05:19:15;;;;;;;21.67;9.20;;;;;;;15.65;79.55;100942.75;5066385;28;20024;-76
2022/06/23 05:21:45;;;;;;;20.80;8.80;;;;;;;15.69;79.43;100936.91;5066079;28;20031;-76
2022/06/23 05:24:19;;;;;;;;;;;;;;;15.78;78.04;100942.47;5069222;28;20020;-76
2022/06/23 05:27:01;;;;;;;20.45;8.70;;;;;;;15.80;78.00;100940.50;5068502;28;19931;-76
2022/06/23 05:29:42;;;;;;;20.83;8.73;;;;;;;15.86;77.96;100931.81;5069064;28;20039;-76
2022/06/23 05:32:22;;;;;;;21.38;9.93;;;;;;;15.90;74.97;100935.91;5066267;28;20036;-76
2022/06/23 05:34:56;;;;;;;20.42;9.05;;;;;;;15.97;73.01;100936.19;5085948;28;20040;-76
2022/06/23 05:37:28;;;;;;;20.15;8.30;;;;;;;16.03;72.77;100936.47;5067878;28;20021;-76
2022/06/23 05:40:12;;;;;;;22.40;9.43;;;;;;;16.09;74.34;100943.16;5056832;28;20098;-76
2022/06/23 05:42:43;;;;;;;21.20;9.13;;;;;;;16.17;73.06;100932.44;5073662;28;20204;-76
2022/06/23 05:45:26;;;;;;;20.30;8.32;;;;;;;16.23;73.93;100931.00;5071775;28;20032;-76
2022/06/23 05:47:54;;;;;;;20.80;8.65;;;;;;;16.30;74.36;100942.97;5071771;28;20392;-76
2022/06/23 05:50:46;;;;;;;19.75;8.80;;;;;;;16.35;74.23;100940.66;5074825;28;20494;-76
2022/06/23 05:53:18;;;;;;;23.00;8.50;;;;;;;16.43;72.95;100939.94;5074516;28;20341;-76
2022/06/23 05:55:52;;;;;;;27.20;9.13;;;;;;;16.50;73.86;100941.03;5068580;28;20027;-76
2022/06/23 05:58:46;;;;;;;21.08;8.77;;;;;;;16.56;73.73;100947.72;5069883;28;20049;-78
2022/06/23 06:01:36;;;;;;;22.13;8.07;;;;;;;16.62;73.04;100944.41;5066163;28;20063;-78
2022/06/23 06:04:17;;;;;;;19.40;8.07;;;;;;;16.70;70.75;100946.38;5066652;28;20162;-78
2022/06/23 06:06:45;;;;;;;19.27;7.70;;;;;;;16.73;69.47;100938.78;5085393;28;20131;-78
2022/06/23 06:12:00;;;;;;;17.75;6.60;;;;;;;16.86;69.62;100932.16;5056376;28;20052;-78
2022/06/23 06:14:29;;;;;;;20.13;7.78;;;;;;;16.93;68.25;100946.88;5069985;28;20077;-78
2022/06/23 06:16:57;;;;;;;18.48;7.20;;;;;;;17.02;69.32;100937.78;5054269;28;20032;-78
2022/06/23 06:19:24;;;;;;;21.08;8.18;;;;;;;17.06;71.14;100933.78;5049641;28;20020;-77
2022/06/23 06:21:54;;;;;;;16.27;6.47;;;;;;;17.05;67.62;100928.50;5065260;28;20074;-77
2022/06/23 06:24:42;;;;;;;18.65;7.57;;;;;;;17.12;69.74;100937.75;5069178;28;20371;-77
2022/06/23 06:27:11;;;;;;;18.50;7.13;;;;;;;17.19;69.07;100916.22;5067302;28;20036;-78
2022/06/23 06:29:40;;;;;;;24.20;9.02;;;;;;;17.25;72.13;100931.94;5068408;28;20067;-78
2022/06/23 06:32:24;;;;;;;21.08;6.32;;;;;;;17.26;67.76;100939.94;5067082;28;20051;-77
2022/06/23 06:34:56;;;;;;;19.05;8.98;;;;;;;17.37;69.89;100947.00;5068336;28;20352;-77
2022/06/23 06:37:24;;;;;;;20.15;9.02;;;;;;;17.42;67.69;100944.69;5067755;28;20109;-78
2022/06/23 06:39:56;;;;;;;20.35;8.10;;;;;;;17.57;68.37;100941.38;5072617;28;20099;-77
2022/06/23 06:42:32;;;;;;;18.15;6.88;;;;;;;17.59;67.69;100933.94;5067153;28;20067;-77
2022/06/23 06:45:01;;;;;;;17.73;7.82;;;;;;;17.66;69.40;100932.31;5081864;28;20028;-77
2022/06/23 06:47:32;;;;;;;21.42;6.88;;;;;;;17.69;66.78;100934.72;5067792;28;20083;-77
2022/06/23 06:50:02;;;;;;;19.60;7.82;;;;;;;17.86;67.31;100937.56;5074040;28;20154;-77
2022/06/23 06:52:29;;;;;;;22.10;7.00;;;;;;;17.91;65.97;100938.00;5069566;28;20032;-77
2022/06/23 06:55:03;;;;;;;19.67;6.57;;;;;;;17.91;65.82;100941.56;5063440;28;20495;-78
2022/06/23 06:57:34;;;;;;;17.15;6.18;;;;;;;17.93;65.69;100942.22;5068719;28;20020;-78
2022/06/23 07:00:07;;;;;;;18.38;7.70;;;;;;;18.06;66.87;100943.69;5069038;28;20032;-78
2022/06/23 07:02:47;;;;;;;21.92;6.70;;;;;;;18.07;65.82;100943.53;5069773;28;20024;-77
2022/06/23 07:05:29;;;;;;;20.55;8.60;;;;;;;18.22;67.37;100953.84;5069891;28;20016;-77
2022/06/23 07:08:29;;;;;;;21.05;7.72;;;;;;;18.33;67.22;100953.53;5079121;28;20106;-77
2022/06/23 07:11:03;;;;;;;21.25;8.35;;;;;;;18.39;67.97;100950.19;5068768;28;20047;-77
2022/06/23 07:13:48;;;;;;;19.30;6.80;;;;;;;18.46;67.08;100951.25;5071704;28;20040;-77
2022/06/23 07:16:31;;;;;;;19.63;8.50;;;;;;;18.62;68.29;100946.91;5069513;28;20117;-77
2022/06/23 07:18:58;;;;;;;18.10;7.18;;;;;;;18.62;67.84;100945.03;5070956;28;20081;-77
2022/06/23 07:21:51;;;;;;;19.60;7.05;;;;;;;18.60;67.45;100947.06;5087848;28;20027;-77
2022/06/23 07:24:29;;;;;;;22.33;8.38;;;;;;;18.78;69.90;100941.53;5091608;28;20067;-77
2022/06/23 07:27:12;;;;;;;20.00;8.50;;;;;;;18.75;69.07;100946.47;5091564;28;20020;-77
2022/06/23 07:30:07;;;;;;;20.98;8.70;;;;;;;18.79;69.45;100931.50;5093182;28;20036;-77
2022/06/23 07:32:57;;;;;;;18.58;6.85;;;;;;;18.84;68.31;100931.84;5078527;28;20032;-77
2022/06/23 07:35:28;;;;;;;22.30;7.70;;;;;;;19.00;71.36;100923.75;5092763;28;20049;-77
2022/06/23 07:38:11;;;;;;;18.30;6.60;;;;;;;18.96;68.70;100932.44;5091414;28;20464;-77
2022/06/23 07:40:48;;;;;;;19.30;7.70;;;;;;;19.02;70.48;100927.19;5083102;28;20392;-77
2022/06/23 07:43:24;;;;;;;19.90;7.30;;;;;;;19.05;70.09;100934.19;5072448;28;20028;-77
2022/06/23 07:45:58;;;;;;;22.02;9.27;;;;;;;19.20;71.00;100929.78;5070698;28;20021;-77
2022/06/23 07:48:26;;;;;;;25.35;9.18;;;;;;;19.31;69.83;100936.78;5070873;28;20024;-77
2022/06/23 07:50:54;;;;;;;22.40;9.48;;;;;;;19.34;70.04;100930.13;5085135;28;20043;-77
2022/06/23 07:53:24;;;;;;;20.08;7.10;;;;;;;19.33;70.35;100939.34;5090992;28;20028;-77
2022/06/23 07:55:50;;;;;;;18.65;7.28;;;;;;;19.35;70.02;100931.84;5090847;28;20024;-77
2022/06/23 07:58:21;;;;;;;18.15;6.47;;;;;;;19.37;69.50;100935.25;5090266;28;20445;-77
2022/06/23 08:00:50;;;;;;;19.95;7.22;;;;;;;19.39;71.82;100938.66;5092204;28;20050;-77
2022/06/23 08:03:29;;;;;;;18.77;6.78;;;;;;;19.42;70.71;100927.41;5090875;28;20031;-77
2022/06/23 08:05:59;;;;;;;19.65;7.57;;;;;;;19.65;73.35;100926.75;5092067;28;20032;-77
2022/06/23 08:08:29;;;;;;;23.30;7.88;;;;;;;19.71;71.36;100928.81;5090573;28;20040;-77
2022/06/23 08:13:46;;;;;;;22.30;7.05;;;;;;;19.84;71.01;100931.91;5092365;28;20039;-77
2022/06/23 08:19:13;;;;;;;20.45;6.63;;;;;;;19.87;71.24;100920.66;5092435;28;20509;-77
2022/06/23 08:21:50;;;;;;;18.23;6.82;;;;;;;19.97;71.42;100925.06;5090476;28;20034;-77
2022/06/23 08:24:20;;;;;;;18.52;7.70;;;;;;;20.20;74.79;100920.56;5081962;28;20048;-77
2022/06/23 08:26:51;;;;;;;18.77;7.95;;;;;;;20.26;73.39;100913.56;5069914;28;20025;-77
2022/06/23 08:29:23;;;;;;;17.92;7.35;;;;;;;20.34;72.41;100915.44;5070114;28;20050;-77
2022/06/23 08:31:48;;;;;;;17.17;6.00;;;;;;;20.28;68.32;100922.47;5071326;28;20047;-77
2022/06/23 08:34:13;;;;;;;19.15;6.90;;;;;;;20.36;70.80;100913.38;5071388;28;20033;-77
2022/06/23 08:36:46;;;;;;;18.35;6.30;;;;;;;20.35;71.84;100917.13;5071350;28;20456;-77
2022/06/23 08:39:23;;;;;;;18.20;7.80;;;;;;;20.48;72.69;100917.44;5086751;28;20506;-77
2022/06/23 08:42:21;;;;;;;17.10;6.53;;;;;;;20.46;70.22;100916.75;5069769;28;20424;-77
2022/06/23 08:45:22;;;;;;;21.63;6.82;;;;;;;20.52;70.16;100918.78;5071192;28;20031;-77
2022/06/23 08:48:14;;;;;;;17.08;5.35;;;;;;;20.46;68.84;100907.72;5066905;28;20372;-77
2022/06/23 08:50:45;;;;;;;17.58;6.53;;;;;;;20.69;72.98;100913.28;5082385;28;20113;-77
2022/06/23 08:53:23;;;;;;;21.25;7.18;;;;;;;20.76;69.52;100915.16;5090053;28;20034;-76
2022/06/23 08:55:56;;;;;;;18.95;7.03;;;;;;;21.00;71.74;100912.47;5091184;28;20024;-76
2022/06/23 08:58:37;;;;;;;14.43;4.63;;;;;;;20.88;66.78;100918.31;5091381;28;20122;-76
2022/06/23 09:01:12;;;;;;;12.38;4.95;;;;;;;20.88;66.90;100910.13;5091189;28;20024;-77
2022/06/23 09:03:51;;;;;;;17.00;5.28;;;;;;;20.89;67.70;100908.25;5075528;28;20036;-77
2022/06/23 09:06:39;;;;;;;20.52;6.18;;;;;;;21.01;68.70;100916.88;5069381;28;20395;-76
2022/06/23 09:09:29;;;;;;;19.05;5.88;;;;;;;21.12;69.52;100905.53;5069121;28;20055;-76
2022/06/23 09:12:23;;;;;;;20.65;5.78;;;;;;;21.12;69.84;100902.81;5069380;28;20033;-77
2022/06/23 09:15:14;;;;;;;17.40;5.88;;;;;;;21.17;68.63;100908.56;5071801;28;20422;-78
2022/06/23 09:17:42;;;;;;;17.83;5.30;;;;;;;21.25;70.21;100897.59;5070987;28;20505;-78
2022/06/23 09:20:24;;;;;;;15.95;5.85;;;;;;;21.24;72.49;100898.63;5077463;28;20428;-78
2022/06/23 09:23:20;;;;;;;15.18;5.30;;;;;;;21.26;69.10;100903.91;5090917;28;20031;-78
2022/06/23 09:25:56;;;;;;;14.57;4.60;;;;;;;21.29;66.80;100901.66;5089424;28;20150;-78
2022/06/23 09:28:51;;;;;;;19.02;6.05;;;;;;;21.45;70.24;100902.56;5090971;28;20059;-78
2022/06/23 09:31:22;;;;;;;20.50;6.15;;;;;;;21.50;68.70;100891.09;5089414;28;20020;-78
2022/06/23 09:33:47;;;;;;;11.18;4.93;;;;;;;21.56;70.43;100896.69;5090857;28;20116;-78
2022/06/23 09:36:18;;;;;;;14.07;5.22;;;;;;;21.59;66.04;100885.41;5090910;28;20106;-78
2022/06/23 09:39:01;;;;;;;18.73;5.45;;;;;;;22.02;72.63;100897.66;5090984;28;20095;-79
2022/06/23 09:41:42;;;;;;;18.83;5.30;;;;;;;22.23;71.70;100894.19;5074287;28;20041;-78
2022/06/23 09:44:14;;;;;;;18.08;6.18;;;;;;;22.32;69.95;100890.34;5069516;28;20134;-78
2022/06/23 09:46:43;;;;;;;19.40;5.85;;;;;;;22.59;71.46;100893.44;5069103;28;20506;-78
2022/06/23 09:49:11;;;;;;;20.90;5.85;;;;;;;22.46;66.53;100899.59;5069191;28;20069;-78
2022/06/23 09:51:53;;;;;;;20.80;6.60;;;;;;;22.51;70.03;100891.66;5088060;28;20024;-78
2022/06/23 09:54:29;;;;;;;21.00;5.90;;;;;;;22.58;70.34;100895.34;5089190;28;20488;-78
2022/06/23 09:57:22;;;;;;;12.25;4.72;;;;;;;22.46;63.89;100894.09;5090799;28;20454;-78
2022/06/23 10:00:05;;;;;;;14.70;5.25;;;;;;;22.57;68.96;100893.63;5089348;28;20024;-78
2022/06/23 10:03:02;;;;;;;18.70;6.93;;;;;;;22.62;67.58;100893.94;5089013;28;20016;-78
2022/06/23 10:05:57;;;;;;;20.88;7.35;;;;;;;22.81;69.34;100888.88;5090611;28;20066;-78
2022/06/23 10:08:31;;;;;;;19.60;7.00;;;;;;;22.79;64.63;100882.75;5090354;28;20085;-78
2022/06/23 10:11:07;;;;;;;21.05;7.10;;;;;;;22.76;68.41;100888.59;5090219;28;20036;-78
2022/06/23 10:13:35;;;;;;;18.23;7.50;;;;;;;22.77;65.67;100890.28;5090619;28;20028;-78
2022/06/23 10:16:12;;;;;;;19.25;6.95;;;;;;;22.73;64.51;100884.34;5090301;28;20031;-79
2022/06/23 10:18:45;;;;;;;15.15;4.78;;;;;;;22.57;63.32;100879.09;5089115;28;20409;-79
2022/06/23 10:21:37;;;;;;;11.48;4.70;;;;;;;22.55;68.13;100882.03;5090976;28;20024;-79
2022/06/23 10:24:44;;;;;;;19.48;7.30;;;;;;;22.66;69.57;100878.78;5087346;28;20027;-78
2022/06/23 10:27:27;;;;;;;11.05;4.72;;;;;;;22.57;63.29;100879.94;5073810;28;20024;-78
2022/06/23 10:30:10;;;;;;;16.95;5.63;;;;;;;22.61;67.39;100886.75;5089409;28;20039;-78
2022/06/23 10:33:01;;;;;;;16.52;6.93;;;;;;;22.66;67.45;100881.53;5073820;28;20020;-78
2022/06/23 10:35:46;;;;;;;18.58;5.50;;;;;;;22.64;63.70;100883.63;5089207;28;20112;-78
2022/06/23 10:38:25;;;;;;;16.58;5.50;;;;;;;22.82;67.87;100871.38;5073709;28;20326;-78
2022/06/23 10:41:08;;;;;;;17.10;4.95;;;;;;;22.82;67.38;100863.16;5073449;28;20028;-78
2022/06/23 10:43:46;;;;;;;10.00;3.72;;;;;;;22.62;62.40;100858.31;5073672;28;20028;-78
2022/06/23 10:46:20;;;;;;;17.85;5.25;;;;;;;22.62;66.25;100858.31;5073294;28;20440;-78
2022/06/23 10:48:51;;;;;;;16.77;5.15;;;;;;;22.63;65.88;100857.25;5073451;28;20089;-78
2022/06/23 10:51:22;;;;;;;15.48;5.38;;;;;;;22.75;63.98;100851.28;5089751;28;20434;-78
2022/06/23 10:54:11;;;;;;;14.02;4.80;;;;;;;22.84;65.95;100844.63;5093664;28;20032;-78
2022/06/23 10:56:57;;;;;;;20.30;6.15;;;;;;;23.06;68.77;100850.13;5091974;28;20578;-78
2022/06/23 10:59:35;;;;;;;17.23;5.78;;;;;;;23.13;65.88;100851.94;5093554;28;20020;-78
2022/06/23 11:02:18;;;;;;;21.10;5.55;;;;;;;23.38;65.18;100840.56;5089938;28;20116;-78
2022/06/23 11:04:55;;;;;;;17.30;6.75;;;;;;;23.59;67.64;100839.72;5073259;28;20098;-78
2022/06/23 11:07:42;;;;;;;18.15;5.65;;;;;;;23.50;64.07;100844.50;5073189;28;20075;-78
2022/06/23 11:10:17;;;;;;;19.23;6.07;;;;;;;23.84;65.30;100842.00;5071685;28;20047;-78
2022/06/23 11:12:54;;;;;;;14.35;5.30;;;;;;;23.77;63.36;100841.94;5071732;28;20201;-78
2022/06/23 11:15:30;;;;;;;25.60;6.80;;;;;;;23.88;64.79;100841.44;5072761;28;20033;-78
2022/06/23 11:18:25;;;;;;;19.88;6.00;;;;;;;23.81;62.36;100834.16;5071623;28;20021;-79
2022/06/23 11:21:14;;;;;;;19.77;5.88;;;;;;;23.70;59.53;100828.16;5101053;28;20020;-78
2022/06/23 11:23:45;;;;;;;18.15;6.53;;;;;;;23.76;66.30;100833.91;5092962;28;20096;-78
2022/06/23 11:26:35;;;;;;;15.57;5.53;;;;;;;23.66;64.79;100837.88;5092916;28;20059;-78
2022/06/23 11:29:19;;;;;;;19.38;6.22;;;;;;;23.80;62.98;100840.69;5092981;28;20120;-78
2022/06/23 11:31:48;;;;;;;10.43;4.40;;;;;;;23.61;60.38;100834.03;5091316;28;20031;-78
2022/06/23 11:34:47;;;;;;;12.60;4.43;;;;;;;23.55;61.82;100838.41;5092769;28;20065;-78
2022/06/23 11:37:32;;;;;;;20.80;5.80;;;;;;;23.60;64.40;100840.53;5092821;28;20028;-78
2022/06/23 11:40:46;;;;;;;14.93;4.93;;;;;;;23.51;64.34;100845.31;5087449;28;20020;-78
2022/06/23 11:43:32;;;;;;;20.35;7.25;;;;;;;23.67;65.71;100844.19;5072498;28;20029;-78
2022/06/23 11:46:20;;;;;;;22.08;6.30;;;;;;;23.81;64.28;100836.88;5070809;28;20028;-78
2022/06/23 11:49:13;;;;;;;18.92;6.90;;;;;;;23.89;65.64;100834.03;5070833;28;20028;-78
2022/06/23 11:51:47;;;;;;;20.02;6.40;;;;;;;23.96;62.04;100826.69;5090231;28;20305;-78
2022/06/23 11:54:19;;;;;;;14.82;5.07;;;;;;;23.95;61.07;100822.25;5092457;28;20040;-78
2022/06/23 11:57:00;;;;;;;18.58;6.93;;;;;;;24.06;62.48;100824.44;5090779;28;20073;-78
2022/06/23 11:59:40;;;;;;;17.35;6.10;;;;;;;24.11;62.51;100817.50;5092565;28;20459;-78
2022/06/23 12:02:05;;;;;;;20.00;7.50;;;;;;;24.29;66.79;100815.06;5092161;28;20020;-78
2022/06/23 12:04:43;;;;;;;26.30;7.38;;;;;;;24.35;64.52;100821.59;5092229;28;20039;-78
2022/06/23 12:07:21;;;;;;;20.73;7.07;;;;;;;24.35;62.18;100816.13;5090610;28;20024;-78
2022/06/23 12:10:13;;;;;;;19.40;6.55;;;;;;;24.50;63.77;100814.06;5092105;28;20395;-78
2022/06/23 12:12:41;;;;;;;17.63;6.18;;;;;;;24.54;62.76;100820.00;5090782;28;20042;-78
2022/06/23 12:15:08;;;;;;;21.13;6.70;;;;;;;24.52;63.23;100830.34;5091871;28;20024;-78
2022/06/23 12:17:40;;;;;;;16.00;6.43;;;;;;;24.46;62.20;100818.28;5090653;28;20426;-78
2022/06/23 12:20:34;;;;;;;17.92;6.65;;;;;;;24.45;60.08;100816.56;5091900;28;20058;-78
2022/06/23 12:22:59;;;;;;;13.00;5.18;;;;;;;24.50;60.27;100813.25;5090531;28;20039;-78